createdAt,value
2016-05-03T00:00:16.896Z,21.8
2016-05-03T00:01:18.024Z,21.9
2016-05-03T00:02:16.949Z,21.9
2016-05-03T00:03:15.998Z,21.9
2016-05-03T00:04:15.048Z,21.9
2016-05-03T00:05:14.097Z,21.9
2016-05-03T00:06:13.147Z,21.8
2016-05-03T00:07:12.196Z,21.9
2016-05-03T00:08:11.230Z,21.9
2016-05-03T00:09:10.295Z,21.9
2016-05-03T00:10:09.393Z,21.8
2016-05-03T00:11:10.520Z,21.8
2016-05-03T00:12:09.460Z,21.9
2016-05-03T00:13:08.510Z,21.8
2016-05-03T00:14:07.575Z,21.9
2016-05-03T00:15:06.968Z,21.8
2016-05-03T00:16:05.909Z,21.9
2016-05-03T00:17:04.958Z,21.8
2016-05-03T00:18:04.007Z,21.8
2016-05-03T00:19:03.307Z,21.8
2016-05-03T00:20:02.529Z,21.8
2016-05-03T00:21:03.422Z,21.8
2016-05-03T00:22:02.487Z,21.8
2016-05-03T00:23:01.521Z,21.8
2016-05-03T00:24:00.836Z,21.8
2016-05-03T00:25:00.136Z,21.8
2016-05-03T00:25:59.434Z,21.8
2016-05-03T00:26:58.737Z,21.8
2016-05-03T00:27:58.033Z,21.8
2016-05-03T00:28:57.334Z,21.8
2016-05-03T00:29:56.716Z,21.8
2016-05-03T00:30:57.718Z,21.8
2016-05-03T00:31:57.050Z,21.8
2016-05-03T00:32:56.335Z,21.8
2016-05-03T00:33:55.618Z,21.8
2016-05-03T00:34:54.917Z,21.8
2016-05-03T00:35:54.218Z,21.8
2016-05-03T00:36:53.673Z,21.8
2016-05-03T00:37:52.835Z,21.8
2016-05-03T00:38:52.150Z,21.8
2016-05-03T00:39:51.481Z,21.8
2016-05-03T00:40:52.499Z,21.8
2016-05-03T00:41:51.798Z,21.8
2016-05-03T00:42:51.099Z,21.8
2016-05-03T00:43:50.523Z,21.8
2016-05-03T00:44:49.713Z,21.7
2016-05-03T00:45:49.012Z,21.7
2016-05-03T00:46:48.312Z,21.8
2016-05-03T00:47:47.612Z,21.7
2016-05-03T00:48:46.927Z,21.7
2016-05-03T00:49:46.273Z,21.7
2016-05-03T00:50:47.292Z,21.7
2016-05-03T00:51:46.592Z,21.7
2016-05-03T00:52:46.000Z,21.7
2016-05-03T00:53:45.190Z,21.7
2016-05-03T00:54:44.490Z,21.7
2016-05-03T00:55:43.789Z,21.7
2016-05-03T00:56:43.089Z,21.7
2016-05-03T00:57:42.514Z,21.7
2016-05-03T00:58:41.703Z,21.7
2016-05-03T00:59:41.066Z,21.7
2016-05-03T01:00:42.084Z,21.7
2016-05-03T01:01:41.383Z,21.7
2016-05-03T01:02:40.684Z,21.7
2016-05-03T01:03:40.108Z,21.7
2016-05-03T01:04:39.282Z,21.7
2016-05-03T01:05:38.583Z,21.7
2016-05-03T01:06:37.882Z,21.7
2016-05-03T01:07:37.588Z,21.7
2016-05-03T01:08:36.512Z,21.7
2016-05-03T01:09:35.844Z,21.7
2016-05-03T01:10:36.860Z,21.7
2016-05-03T01:11:36.286Z,21.7
2016-05-03T01:12:35.476Z,21.7
2016-05-03T01:13:34.775Z,21.7
2016-05-03T01:14:34.072Z,21.7
2016-05-03T01:15:33.372Z,21.7
2016-05-03T01:16:32.718Z,21.7
2016-05-03T01:17:31.987Z,21.7
2016-05-03T01:18:31.286Z,21.7
2016-05-03T01:19:30.649Z,21.7
2016-05-03T01:20:31.792Z,21.7
2016-05-03T01:21:30.967Z,21.7
2016-05-03T01:22:31.000Z,21.7
2016-05-03T01:23:29.815Z,21.7
2016-05-03T01:24:29.146Z,21.7
2016-05-03T01:25:28.681Z,21.7
2016-05-03T01:26:28.105Z,21.7
2016-05-03T01:27:27.654Z,21.7
2016-05-03T01:28:27.236Z,21.7
2016-05-03T01:29:26.706Z,21.7
2016-05-03T01:30:27.850Z,21.7
2016-05-03T01:31:27.289Z,21.7
2016-05-03T01:32:26.965Z,21.7
2016-05-03T01:33:26.405Z,21.7
2016-05-03T01:34:25.955Z,21.7
2016-05-03T01:35:25.520Z,21.7
2016-05-03T01:36:25.085Z,21.7
2016-05-03T01:37:24.885Z,21.7
2016-05-03T01:38:24.309Z,21.7
2016-05-03T01:39:23.796Z,21.7
2016-05-03T01:40:24.830Z,21.7
2016-05-03T01:41:24.380Z,21.6
2016-05-03T01:42:23.945Z,21.6
2016-05-03T01:43:23.479Z,21.7
2016-05-03T01:44:23.044Z,21.7
2016-05-03T01:45:22.593Z,21.7
2016-05-03T01:46:22.159Z,21.6
2016-05-03T01:47:21.724Z,21.6
2016-05-03T01:48:21.274Z,21.6
2016-05-03T01:49:21.010Z,21.6
2016-05-03T01:50:21.904Z,21.6
2016-05-03T01:51:21.454Z,21.7
2016-05-03T01:52:21.143Z,21.6
2016-05-03T01:53:20.585Z,21.6
2016-05-03T01:54:20.134Z,21.6
2016-05-03T01:55:19.683Z,21.6
2016-05-03T01:56:19.249Z,21.6
2016-05-03T01:57:18.798Z,21.6
2016-05-03T01:58:18.612Z,21.6
2016-05-03T01:59:18.225Z,21.6
2016-05-03T02:00:19.243Z,21.6
2016-05-03T02:01:18.809Z,21.6
2016-05-03T02:02:18.389Z,21.6
2016-05-03T02:03:18.283Z,21.6
2016-05-03T02:04:18.036Z,21.6
2016-05-03T02:05:17.789Z,21.6
2016-05-03T02:06:17.604Z,21.7
2016-05-03T02:07:17.418Z,21.6
2016-05-03T02:18:16.620Z,21.6
2016-05-03T02:19:16.466Z,21.6
2016-05-03T02:20:17.485Z,21.6
2016-05-03T02:21:17.300Z,21.6
2016-05-03T02:22:18.568Z,21.6
2016-05-03T02:23:17.024Z,21.6
2016-05-03T02:24:16.714Z,21.6
2016-05-03T02:25:16.529Z,21.6
2016-05-03T02:26:16.345Z,21.6
2016-05-03T02:27:16.145Z,21.6
2016-05-03T02:28:15.959Z,21.6
2016-05-03T02:29:15.821Z,21.6
2016-05-03T02:30:16.856Z,21.6
2016-05-03T02:31:16.656Z,21.6
2016-05-03T02:32:16.470Z,21.6
2016-05-03T02:33:16.285Z,21.6
2016-05-03T02:34:16.101Z,21.6
2016-05-03T02:35:15.900Z,21.6
2016-05-03T02:36:15.747Z,21.6
2016-05-03T02:37:15.577Z,21.6
2016-05-03T02:38:15.346Z,21.6
2016-05-03T02:39:15.192Z,21.6
2016-05-03T02:40:16.210Z,21.6
2016-05-03T02:41:16.135Z,21.6
2016-05-03T02:42:15.825Z,21.6
2016-05-03T02:43:15.641Z,21.6
2016-05-03T02:44:15.456Z,21.6
2016-05-03T02:45:15.255Z,21.6
2016-05-03T02:46:15.055Z,21.5
2016-05-03T02:47:14.995Z,21.6
2016-05-03T02:48:14.685Z,21.6
2016-05-03T02:49:14.547Z,21.6
2016-05-03T02:50:15.565Z,21.6
2016-05-03T02:51:15.381Z,21.6
2016-05-03T02:52:15.196Z,21.6
2016-05-03T02:53:14.996Z,21.5
2016-05-03T02:54:14.796Z,21.5
2016-05-03T02:55:14.627Z,21.6
2016-05-03T02:56:14.426Z,21.5
2016-05-03T02:57:14.241Z,21.6
2016-05-03T02:58:14.041Z,21.5
2016-05-03T02:59:14.059Z,21.6
2016-05-03T03:00:15.062Z,21.5
2016-05-03T03:01:14.751Z,21.5
2016-05-03T03:02:14.551Z,21.5
2016-05-03T03:03:14.476Z,21.5
2016-05-03T03:04:14.166Z,21.5
2016-05-03T03:05:13.965Z,21.5
2016-05-03T03:06:13.781Z,21.5
2016-05-03T03:07:13.612Z,21.5
2016-05-03T03:08:13.520Z,21.5
2016-05-03T03:09:13.272Z,21.5
2016-05-03T03:10:14.307Z,21.5
2016-05-03T03:11:14.216Z,21.5
2016-05-03T03:12:13.937Z,21.5
2016-05-03T03:13:13.721Z,21.5
2016-05-03T03:14:13.647Z,21.5
2016-05-03T03:15:13.336Z,21.5
2016-05-03T03:16:13.167Z,21.6
2016-05-03T03:17:12.967Z,21.6
2016-05-03T03:18:12.891Z,21.5
2016-05-03T03:19:12.644Z,21.5
2016-05-03T03:20:13.662Z,21.5
2016-05-03T03:21:13.524Z,21.5
2016-05-03T03:22:13.293Z,21.5
2016-05-03T03:23:13.108Z,21.6
2016-05-03T03:24:12.891Z,21.5
2016-05-03T03:25:12.707Z,21.5
2016-05-03T03:26:12.771Z,21.5
2016-05-03T03:27:12.884Z,21.5
2016-05-03T03:28:12.652Z,21.5
2016-05-03T03:29:12.515Z,21.6
2016-05-03T03:30:13.549Z,21.6
2016-05-03T03:31:13.349Z,21.5
2016-05-03T03:32:13.538Z,21.5
2016-05-03T03:33:13.479Z,21.5
2016-05-03T03:34:13.668Z,21.5
2016-05-03T03:35:13.593Z,21.5
2016-05-03T03:36:13.674Z,21.5
2016-05-03T03:37:13.723Z,21.5
2016-05-03T03:38:13.804Z,21.5
2016-05-03T03:39:13.917Z,21.5
2016-05-03T03:40:14.934Z,21.5
2016-05-03T03:41:15.109Z,21.5
2016-05-03T03:42:15.175Z,21.5
2016-05-03T03:43:15.131Z,21.5
2016-05-03T03:44:15.181Z,21.5
2016-05-03T03:45:15.244Z,21.5
2016-05-03T03:46:15.419Z,21.5
2016-05-03T03:47:15.375Z,21.5
2016-05-03T03:48:15.550Z,21.5
2016-05-03T03:49:15.552Z,21.5
2016-05-03T03:50:16.587Z,21.6
2016-05-03T03:51:16.636Z,21.5
2016-05-03T03:52:16.702Z,21.6
2016-05-03T03:53:16.891Z,21.5
2016-05-03T03:54:16.832Z,21.6
2016-05-03T03:55:16.881Z,21.5
2016-05-03T03:56:16.947Z,21.5
2016-05-03T03:57:17.027Z,21.6
2016-05-03T03:58:17.092Z,21.6
2016-05-03T03:59:17.204Z,21.6
2016-05-03T04:00:18.223Z,21.6
2016-05-03T04:01:18.398Z,21.6
2016-05-03T04:02:18.338Z,21.5
2016-05-03T04:03:18.528Z,21.6
2016-05-03T04:04:18.484Z,21.6
2016-05-03T04:05:18.643Z,21.5
2016-05-03T04:06:18.599Z,21.6
2016-05-03T04:07:18.664Z,21.6
2016-05-03T04:08:18.712Z,21.5
2016-05-03T04:09:18.840Z,21.5
2016-05-03T04:10:19.984Z,21.6
2016-05-03T04:11:20.050Z,21.6
2016-05-03T04:12:19.990Z,21.6
2016-05-03T04:13:20.056Z,21.6
2016-05-03T04:14:20.119Z,21.6
2016-05-03T04:15:20.185Z,21.6
2016-05-03T04:16:20.359Z,21.6
2016-05-03T04:17:20.300Z,21.6
2016-05-03T04:18:20.365Z,21.6
2016-05-03T04:19:20.508Z,21.6
2016-05-03T04:20:21.511Z,21.6
2016-05-03T04:21:21.690Z,21.6
2016-05-03T04:22:21.676Z,21.6
2016-05-03T04:23:21.789Z,21.6
2016-05-03T04:24:21.916Z,21.6
2016-05-03T04:25:22.013Z,21.6
2016-05-03T04:26:22.120Z,21.6
2016-05-03T04:27:22.328Z,21.7
2016-05-03T04:28:22.268Z,21.7
2016-05-03T04:29:22.413Z,21.6
2016-05-03T04:30:23.463Z,21.6
2016-05-03T04:31:23.512Z,21.6
2016-05-03T04:32:23.583Z,21.6
2016-05-03T04:33:23.655Z,21.6
2016-05-03T04:34:23.727Z,21.7
2016-05-03T04:35:23.798Z,21.6
2016-05-03T04:36:23.852Z,21.7
2016-05-03T04:37:23.936Z,21.6
2016-05-03T04:38:24.113Z,21.6
2016-05-03T04:39:24.227Z,21.6
2016-05-03T04:40:25.139Z,21.6
2016-05-03T04:41:25.316Z,21.7
2016-05-03T04:42:25.256Z,21.7
2016-05-03T04:43:25.323Z,21.7
2016-05-03T04:44:25.529Z,21.6
2016-05-03T04:45:25.455Z,21.6
2016-05-03T04:46:25.520Z,21.6
2016-05-03T04:47:25.570Z,21.7
2016-05-03T04:48:25.761Z,21.6
2016-05-03T04:49:25.873Z,21.7
2016-05-03T04:50:26.782Z,21.7
2016-05-03T04:51:26.957Z,21.7
2016-05-03T04:52:27.023Z,21.7
2016-05-03T04:53:26.962Z,21.7
2016-05-03T04:54:27.028Z,21.7
2016-05-03T04:55:27.202Z,21.7
2016-05-03T04:56:27.159Z,21.7
2016-05-03T04:57:27.207Z,21.8
2016-05-03T04:58:27.382Z,21.8
2016-05-03T04:59:27.401Z,21.8
2016-05-03T05:00:28.434Z,21.8
2016-05-03T05:01:28.609Z,21.8
2016-05-03T05:02:28.659Z,21.8
2016-05-03T05:03:28.615Z,21.8
2016-05-03T05:04:28.664Z,21.8
2016-05-03T05:05:28.729Z,21.8
2016-05-03T05:06:28.794Z,21.8
2016-05-03T05:07:28.969Z,21.8
2016-05-03T05:08:28.909Z,21.8
2016-05-03T05:09:29.053Z,21.8
2016-05-03T05:10:30.055Z,21.9
2016-05-03T05:11:29.855Z,21.9
2016-05-03T05:12:29.717Z,21.9
2016-05-03T05:13:29.594Z,21.9
2016-05-03T05:14:29.410Z,21.9
2016-05-03T05:15:29.210Z,21.9
2016-05-03T05:16:28.915Z,21.9
2016-05-03T05:17:28.715Z,21.9
2016-05-03T05:18:28.514Z,21.9
2016-05-03T05:19:28.391Z,21.9
2016-05-03T05:20:29.410Z,21.9
2016-05-03T05:21:29.351Z,21.9
2016-05-03T05:22:29.291Z,21.9
2016-05-03T05:23:29.090Z,21.9
2016-05-03T05:24:29.155Z,21.9
2016-05-03T05:25:29.080Z,21.9
2016-05-03T05:26:28.770Z,21.9
2016-05-03T05:27:28.570Z,21.9
2016-05-03T05:28:28.384Z,21.9
2016-05-03T05:29:28.372Z,21.9
2016-05-03T05:30:29.281Z,21.9
2016-05-03T05:31:29.081Z,21.9
2016-05-03T05:32:28.880Z,21.9
2016-05-03T05:33:28.695Z,21.9
2016-05-03T05:34:28.511Z,22
2016-05-03T05:35:28.450Z,22
2016-05-03T05:36:28.125Z,22
2016-05-03T05:37:27.940Z,22
2016-05-03T05:38:27.739Z,22
2016-05-03T05:39:27.743Z,22
2016-05-03T05:40:28.636Z,22
2016-05-03T05:41:28.435Z,22
2016-05-03T05:42:28.235Z,22.1
2016-05-03T05:43:28.050Z,22.1
2016-05-03T05:44:27.849Z,22.1
2016-05-03T05:45:27.680Z,22
2016-05-03T05:46:27.480Z,22
2016-05-03T05:47:27.296Z,22
2016-05-03T05:48:27.094Z,22.1
2016-05-03T05:49:26.972Z,22.1
2016-05-03T05:50:27.975Z,22.1
2016-05-03T05:51:27.791Z,22.1
2016-05-03T05:52:27.590Z,22.1
2016-05-03T05:53:27.405Z,22.1
2016-05-03T05:54:27.205Z,22.1
2016-05-03T05:55:27.160Z,22
2016-05-03T05:56:26.945Z,22.1
2016-05-03T05:57:26.635Z,22.1
2016-05-03T05:58:26.559Z,22.1
2016-05-03T05:59:26.312Z,22.1
2016-05-03T06:00:27.565Z,22.1
2016-05-03T06:01:27.129Z,22.1
2016-05-03T06:02:26.945Z,22.1
2016-05-03T06:03:26.759Z,22.1
2016-05-03T06:04:26.670Z,22.1
2016-05-03T06:05:26.391Z,22.1
2016-05-03T06:06:26.190Z,22.1
2016-05-03T06:07:25.989Z,22.1
2016-05-03T06:08:25.789Z,22.1
2016-05-03T06:09:25.651Z,22.2
2016-05-03T06:10:26.670Z,22.2
2016-05-03T06:11:26.486Z,22.2
2016-05-03T06:12:26.284Z,22.2
2016-05-03T06:13:26.099Z,22.3
2016-05-03T06:14:25.900Z,22.3
2016-05-03T06:15:25.714Z,22.3
2016-05-03T06:16:25.530Z,22.3
2016-05-03T06:17:25.330Z,22.3
2016-05-03T06:18:25.145Z,22.4
2016-05-03T06:19:25.007Z,22.4
2016-05-03T06:20:26.150Z,22.4
2016-05-03T06:21:25.840Z,22.4
2016-05-03T06:22:25.827Z,22.5
2016-05-03T06:23:24.939Z,22.5
2016-05-03T06:24:24.614Z,22.5
2016-05-03T06:25:24.054Z,22.5
2016-05-03T06:26:23.728Z,22.5
2016-05-03T06:27:23.279Z,22.6
2016-05-03T06:28:22.484Z,22.6
2016-05-03T06:29:22.080Z,22.6
2016-05-03T06:30:23.099Z,22.6
2016-05-03T06:31:22.398Z,22.7
2016-05-03T06:32:21.682Z,22.7
2016-05-03T06:33:21.107Z,22.7
2016-05-03T06:34:20.281Z,22.8
2016-05-03T06:35:19.581Z,22.8
2016-05-03T06:36:18.881Z,22.8
2016-05-03T06:37:18.196Z,22.9
2016-05-03T06:38:17.510Z,22.9
2016-05-03T06:39:16.842Z,22.9
2016-05-03T06:40:17.969Z,23
2016-05-03T06:41:17.159Z,23
2016-05-03T06:42:16.459Z,23.1
2016-05-03T06:43:15.509Z,23.1
2016-05-03T06:44:14.574Z,23.1
2016-05-03T06:45:13.607Z,23.2
2016-05-03T06:46:12.766Z,23.3
2016-05-03T06:47:11.691Z,23.3
2016-05-03T06:48:10.475Z,23.3
2016-05-03T06:49:09.322Z,23.3
2016-05-03T06:50:10.340Z,23.3
2016-05-03T06:51:09.139Z,23.4
2016-05-03T06:52:07.924Z,23.3
2016-05-03T06:53:06.723Z,23.4
2016-05-03T06:54:05.522Z,23.4
2016-05-03T06:55:04.304Z,23.4
2016-05-03T06:56:03.103Z,23.5
2016-05-03T06:57:02.013Z,23.5
2016-05-03T06:58:00.671Z,23.5
2016-05-03T06:58:59.518Z,23.5
2016-05-03T07:00:00.536Z,23.5
2016-05-03T07:00:59.335Z,23.5
2016-05-03T07:01:58.120Z,23.5
2016-05-03T07:02:56.919Z,23.5
2016-05-03T07:03:55.828Z,23.6
2016-05-03T07:04:54.503Z,23.6
2016-05-03T07:05:53.287Z,23.6
2016-05-03T07:06:52.087Z,23.6
2016-05-03T07:07:51.073Z,23.6
2016-05-03T07:08:49.467Z,23.7
2016-05-03T07:09:50.484Z,23.7
2016-05-03T07:10:49.019Z,23.7
2016-05-03T07:11:47.553Z,23.7
2016-05-03T07:12:46.212Z,23.7
2016-05-03T07:13:44.762Z,23.7
2016-05-03T07:14:43.295Z,23.7
2016-05-03T07:15:41.704Z,23.7
2016-05-03T07:16:40.253Z,23.7
2016-05-03T07:17:38.788Z,23.7
2016-05-03T07:18:37.494Z,23.7
2016-05-03T07:19:38.511Z,23.7
2016-05-03T07:20:36.936Z,23.7
2016-05-03T07:21:35.720Z,23.7
2016-05-03T07:22:34.520Z,23.7
2016-05-03T07:23:33.304Z,23.7
2016-05-03T07:24:32.088Z,23.7
2016-05-03T07:25:30.888Z,23.7
2016-05-03T07:26:29.687Z,23.7
2016-05-03T07:27:28.486Z,23.8
2016-05-03T07:28:27.332Z,23.8
2016-05-03T07:29:28.336Z,23.8
2016-05-03T07:30:27.135Z,23.8
2016-05-03T07:31:25.919Z,23.8
2016-05-03T07:32:24.719Z,23.8
2016-05-03T07:33:23.502Z,23.8
2016-05-03T07:34:22.302Z,23.8
2016-05-03T07:35:21.086Z,23.8
2016-05-03T07:36:19.885Z,23.8
2016-05-03T07:37:18.717Z,23.8
2016-05-03T07:38:17.515Z,23.9
2016-05-03T07:39:18.535Z,23.9
2016-05-03T07:40:17.334Z,23.9
2016-05-03T07:41:16.118Z,23.9
2016-05-03T07:42:14.918Z,23.9
2016-05-03T07:43:13.826Z,23.9
2016-05-03T07:44:12.611Z,23.9
2016-05-03T07:45:11.282Z,23.9
2016-05-03T07:46:10.206Z,24
2016-05-03T07:47:08.897Z,24
2016-05-03T07:48:07.744Z,24
2016-05-03T07:49:08.747Z,24
2016-05-03T07:50:07.405Z,24.1
2016-05-03T07:51:05.830Z,24.1
2016-05-03T07:52:04.380Z,24.1
2016-05-03T07:53:03.022Z,24.1
2016-05-03T07:54:01.697Z,24.1
2016-05-03T07:54:59.966Z,24.1
2016-05-03T07:55:58.641Z,24.1
2016-05-03T07:56:57.174Z,24.1
2016-05-03T07:57:55.660Z,24.1
2016-05-03T07:58:56.663Z,24.2
2016-05-03T07:59:55.197Z,24.2
2016-05-03T08:00:53.732Z,24.2
2016-05-03T08:01:52.282Z,24.2
2016-05-03T08:02:50.816Z,24.3
2016-05-03T08:03:49.474Z,24.4
2016-05-03T08:04:47.899Z,24.5
2016-05-03T08:05:46.433Z,24.5
2016-05-03T08:06:44.716Z,24.6
2016-05-03T08:07:43.516Z,24.7
2016-05-03T08:08:44.082Z,24.8
2016-05-03T08:09:42.474Z,24.9
2016-05-03T08:10:40.633Z,24.9
2016-05-03T08:11:39.059Z,24.9
2016-05-03T08:12:37.217Z,24.9
2016-05-03T08:13:35.531Z,24.9
2016-05-03T08:14:33.770Z,25
2016-05-03T08:15:32.053Z,25
2016-05-03T08:16:30.337Z,24.9
2016-05-03T08:17:28.700Z,24.9
2016-05-03T08:18:29.702Z,24.9
2016-05-03T08:19:27.986Z,24.9
2016-05-03T08:20:26.378Z,24.9
2016-05-03T08:21:24.553Z,24.8
2016-05-03T08:22:22.838Z,24.9
2016-05-03T08:23:21.247Z,24.9
2016-05-03T08:24:19.655Z,25
2016-05-03T08:25:18.455Z,25.1
2016-05-03T08:26:17.333Z,25.3
2016-05-03T08:27:16.101Z,25.3
2016-05-03T08:28:17.088Z,25.5
2016-05-03T08:29:15.872Z,25.7
2016-05-03T08:31:13.563Z,25.9
2016-05-03T08:32:11.987Z,26
2016-05-03T08:33:10.833Z,26.1
2016-05-03T08:34:08.929Z,26.2
2016-05-03T08:35:07.088Z,26.3
2016-05-03T08:36:05.482Z,26.4
2016-05-03T08:37:03.562Z,26.5
2016-05-03T08:38:04.581Z,26.5
2016-05-03T08:39:02.224Z,26.6
2016-05-03T08:40:00.148Z,26.6
2016-05-03T08:41:01.729Z,26.7
2016-05-03T08:42:03.295Z,26.8
2016-05-03T08:43:04.594Z,26.9
2016-05-03T08:44:05.940Z,26.9
2016-05-03T08:45:07.116Z,26.9
2016-05-03T08:46:08.571Z,27
2016-05-03T08:47:09.823Z,27
2016-05-03T08:48:10.859Z,27.1
2016-05-03T08:49:11.892Z,27.1
2016-05-03T08:50:12.831Z,27.1
2016-05-03T08:51:13.522Z,27.1
2016-05-03T08:52:14.353Z,27.1
2016-05-03T08:53:15.152Z,27.1
2016-05-03T08:54:15.967Z,27.1
2016-05-03T08:55:16.895Z,27.1
2016-05-03T08:56:17.586Z,27.1
2016-05-03T08:57:18.447Z,27.2
2016-05-03T08:58:19.481Z,27.2
2016-05-03T08:59:20.016Z,27.2
2016-05-03T09:00:20.580Z,27.2
2016-05-03T09:01:20.630Z,27.2
2016-05-03T09:02:20.960Z,27.1
2016-05-03T09:03:21.260Z,27.1
2016-05-03T09:04:21.544Z,27.1
2016-05-03T09:05:21.860Z,27.1
2016-05-03T09:06:22.159Z,27.1
2016-05-03T09:07:22.271Z,27.1
2016-05-03T09:08:23.290Z,27
2016-05-03T09:09:23.323Z,26.9
2016-05-03T09:10:23.373Z,26.9
2016-05-03T09:11:23.438Z,26.9
2016-05-03T09:12:23.488Z,26.9
2016-05-03T09:13:23.537Z,26.9
2016-05-03T09:14:23.618Z,26.8
2016-05-03T09:15:24.042Z,26.8
2016-05-03T09:16:24.217Z,26.8
2016-05-03T09:17:24.579Z,26.8
2016-05-03T09:18:25.581Z,26.7
2016-05-03T09:19:25.897Z,26.7
2016-05-03T09:20:26.322Z,26.7
2016-05-03T09:21:26.527Z,26.7
2016-05-03T09:22:26.827Z,26.6
2016-05-03T09:23:27.252Z,26.6
2016-05-03T09:24:27.458Z,26.6
2016-05-03T09:25:27.772Z,26.5
2016-05-03T09:26:28.056Z,26.5
2016-05-03T09:27:28.559Z,26.5
2016-05-03T09:28:29.625Z,26.5
2016-05-03T09:29:29.971Z,26.4
2016-05-03T09:30:30.161Z,26.4
2016-05-03T09:31:30.398Z,26.4
2016-05-03T09:32:30.666Z,26.3
2016-05-03T09:33:30.981Z,26.3
2016-05-03T09:34:31.407Z,26.3
2016-05-03T09:35:31.846Z,26.2
2016-05-03T09:36:32.412Z,26.1
2016-05-03T09:37:33.165Z,26.1
2016-05-03T09:38:34.042Z,26
2016-05-03T09:39:34.607Z,26
2016-05-03T09:40:35.173Z,25.9
2016-05-03T09:41:35.846Z,25.9
2016-05-03T09:42:36.287Z,25.9
2016-05-03T09:43:37.118Z,25.8
2016-05-03T09:44:37.934Z,25.8
2016-05-03T09:45:38.748Z,25.7
2016-05-03T09:46:39.548Z,25.7
2016-05-03T09:47:40.426Z,25.7
2016-05-03T09:48:41.444Z,25.6
2016-05-03T09:49:42.259Z,25.6
2016-05-03T09:50:43.199Z,25.5
2016-05-03T09:51:43.906Z,25.5
2016-05-03T09:52:44.720Z,25.5
2016-05-03T09:53:45.519Z,25.5
2016-05-03T09:54:46.336Z,25.4
2016-05-03T09:55:47.166Z,25.4
2016-05-03T09:56:47.716Z,25.4
2016-05-03T09:57:48.328Z,25.4
2016-05-03T09:58:49.346Z,25.3
2016-05-03T09:59:49.802Z,25.3
2016-05-03T10:00:49.960Z,25.3
2016-05-03T10:01:50.292Z,25.3
2016-05-03T10:02:50.575Z,25.3
2016-05-03T10:03:50.624Z,25.3
2016-05-03T10:04:50.674Z,25.3
2016-05-03T10:05:50.599Z,25.3
2016-05-03T10:06:50.288Z,25.3
2016-05-03T10:07:50.291Z,25.2
2016-05-03T10:08:51.169Z,25.2
2016-05-03T10:09:50.968Z,25.2
2016-05-03T10:10:50.768Z,25.2
2016-05-03T10:11:50.584Z,25.2
2016-05-03T10:12:50.493Z,25.1
2016-05-03T10:13:50.292Z,25.1
2016-05-03T10:14:49.982Z,25.2
2016-05-03T10:15:49.782Z,25.2
2016-05-03T10:16:49.582Z,25.1
2016-05-03T10:17:49.568Z,25.2
2016-05-03T10:18:50.462Z,25.1
2016-05-03T10:19:50.261Z,25.1
2016-05-03T10:21:49.861Z,25.1
2016-05-03T10:22:50.175Z,25.1
2016-05-03T10:23:49.084Z,25.1
2016-05-03T10:24:48.541Z,25.1
2016-05-03T10:25:48.059Z,25.1
2016-05-03T10:26:47.609Z,25.1
2016-05-03T10:27:47.236Z,25.1
2016-05-03T10:28:48.239Z,25.1
2016-05-03T10:29:47.539Z,25
2016-05-03T10:30:46.838Z,25
2016-05-03T10:31:46.138Z,25
2016-05-03T10:32:45.422Z,25
2016-05-03T10:33:44.721Z,25
2016-05-03T10:34:44.271Z,25
2016-05-03T10:35:43.821Z,25
2016-05-03T10:36:43.120Z,25
2016-05-03T10:37:42.482Z,25
2016-05-03T10:38:43.485Z,25
2016-05-03T10:39:42.769Z,25
2016-05-03T10:40:42.334Z,25
2016-05-03T10:41:41.633Z,25
2016-05-03T10:42:40.918Z,25
2016-05-03T10:43:40.217Z,25
2016-05-03T10:44:39.516Z,25
2016-05-03T10:45:38.816Z,24.9
2016-05-03T10:46:38.115Z,24.9
2016-05-03T10:47:37.478Z,24.9
2016-05-03T10:48:38.605Z,24.9
2016-05-03T10:49:37.779Z,24.9
2016-05-03T10:50:37.079Z,24.9
2016-05-03T10:51:36.364Z,24.9
2016-05-03T10:52:35.913Z,24.9
2016-05-03T10:53:35.478Z,24.8
2016-05-03T10:54:35.027Z,24.9
2016-05-03T10:55:34.328Z,24.9
2016-05-03T10:56:33.627Z,24.9
2016-05-03T10:57:32.973Z,24.9
2016-05-03T10:58:33.992Z,24.9
2016-05-03T10:59:33.291Z,24.8
2016-05-03T11:00:32.591Z,24.9
2016-05-03T11:01:31.891Z,24.9
2016-05-03T11:02:31.174Z,24.8
2016-05-03T11:03:30.755Z,24.8
2016-05-03T11:04:30.039Z,24.8
2016-05-03T11:05:29.338Z,24.8
2016-05-03T11:06:28.638Z,24.7
2016-05-03T11:07:29.578Z,24.7
2016-05-03T11:08:28.987Z,24.7
2016-05-03T11:09:28.288Z,24.7
2016-05-03T11:10:27.586Z,24.7
2016-05-03T11:11:26.901Z,24.7
2016-05-03T11:12:25.936Z,24.7
2016-05-03T11:13:25.109Z,24.7
2016-05-03T11:14:24.018Z,24.7
2016-05-03T11:15:22.818Z,24.6
2016-05-03T11:16:21.865Z,24.6
2016-05-03T11:17:20.712Z,24.6
2016-05-03T11:18:21.715Z,24.5
2016-05-03T11:19:20.514Z,24.6
2016-05-03T11:20:19.314Z,24.5
2016-05-03T11:21:18.097Z,24.5
2016-05-03T11:22:17.007Z,24.5
2016-05-03T11:23:16.103Z,24.5
2016-05-03T11:24:14.590Z,24.5
2016-05-03T11:25:13.249Z,24.5
2016-05-03T11:26:12.158Z,24.6
2016-05-03T11:27:10.895Z,24.5
2016-05-03T11:28:11.898Z,24.5
2016-05-03T11:29:10.806Z,24.6
2016-05-03T11:30:09.481Z,24.6
2016-05-03T11:31:08.281Z,24.6
2016-05-03T11:32:07.064Z,24.6
2016-05-03T11:33:05.599Z,24.6
2016-05-03T11:34:04.133Z,24.6
2016-05-03T11:35:02.791Z,24.6
2016-05-03T11:36:01.216Z,24.6
2016-05-03T11:36:59.797Z,24.6
2016-05-03T11:38:01.096Z,24.6
2016-05-03T11:38:59.349Z,24.6
2016-05-03T11:39:57.899Z,24.6
2016-05-03T11:40:56.776Z,24.6
2016-05-03T11:41:55.483Z,24.7
2016-05-03T11:42:54.016Z,24.6
2016-05-03T11:43:52.550Z,24.6
2016-05-03T11:44:51.085Z,24.6
2016-05-03T11:45:49.743Z,24.7
2016-05-03T11:46:47.948Z,24.6
2016-05-03T11:47:49.092Z,24.6
2016-05-03T11:48:47.517Z,24.7
2016-05-03T11:49:46.160Z,24.6
2016-05-03T11:50:44.585Z,24.7
2016-05-03T11:51:43.118Z,24.7
2016-05-03T11:52:41.653Z,24.7
2016-05-03T11:53:40.311Z,24.7
2016-05-03T11:54:38.721Z,24.7
2016-05-03T11:55:37.270Z,24.7
2016-05-03T11:56:35.851Z,24.7
2016-05-03T11:57:36.869Z,24.7
2016-05-03T11:58:35.403Z,24.7
2016-05-03T11:59:34.062Z,24.7
2016-05-03T12:00:32.736Z,24.7
2016-05-03T12:01:31.396Z,24.7
2016-05-03T12:02:29.805Z,24.7
2016-05-03T12:03:28.351Z,24.7
2016-05-03T12:04:26.885Z,24.7
2016-05-03T12:05:25.419Z,24.7
2016-05-03T12:06:24.141Z,24.6
2016-05-03T12:07:25.034Z,24.6
2016-05-03T12:08:23.694Z,24.6
2016-05-03T12:09:22.102Z,24.6
2016-05-03T12:10:20.761Z,24.5
2016-05-03T12:11:19.202Z,24.5
2016-05-03T12:12:17.719Z,24.5
2016-05-03T12:13:16.253Z,24.5
2016-05-03T12:14:14.787Z,24.5
2016-05-03T12:15:13.338Z,24.5
2016-05-03T12:16:11.933Z,24.5
2016-05-03T12:17:12.935Z,24.5
2016-05-03T12:18:11.595Z,24.5
2016-05-03T12:19:15.191Z,24.5
2016-05-03T12:20:08.554Z,24.5
2016-05-03T12:21:07.213Z,24.5
2016-05-03T12:22:05.621Z,24.4
2016-05-03T12:23:04.171Z,24.4
2016-05-03T12:24:02.705Z,24.4
2016-05-03T12:25:01.240Z,24.5
2016-05-03T12:25:59.945Z,24.4
2016-05-03T12:27:00.837Z,24.4
2016-05-03T12:27:59.122Z,24.4
2016-05-03T12:28:57.421Z,24.4
2016-05-03T12:29:55.689Z,24.4
2016-05-03T12:30:53.973Z,24.4
2016-05-03T12:31:52.258Z,24.4
2016-05-03T12:32:50.792Z,24.4
2016-05-03T12:33:49.326Z,24.3
2016-05-03T12:34:47.984Z,24.3
2016-05-03T12:35:46.580Z,24.3
2016-05-03T12:36:47.474Z,24.3
2016-05-03T12:37:46.274Z,24.4
2016-05-03T12:38:45.183Z,24.3
2016-05-03T12:39:43.858Z,24.3
2016-05-03T12:40:42.641Z,24.3
2016-05-03T12:41:41.550Z,24.2
2016-05-03T12:42:40.333Z,24.2
2016-05-03T12:43:39.024Z,24.2
2016-05-03T12:44:37.807Z,24.2
2016-05-03T12:45:36.764Z,24.2
2016-05-03T12:46:37.674Z,24.2
2016-05-03T12:47:36.457Z,24.2
2016-05-03T12:48:35.366Z,24.2
2016-05-03T12:49:34.040Z,24.1
2016-05-03T12:50:32.840Z,24.2
2016-05-03T12:51:31.623Z,24.1
2016-05-03T12:52:30.420Z,24.1
2016-05-03T12:53:29.204Z,24.1
2016-05-03T12:54:28.004Z,24.1
2016-05-03T12:55:26.834Z,24.1
2016-05-03T12:56:27.978Z,24.1
2016-05-03T12:57:26.653Z,24.1
2016-05-03T12:58:25.437Z,24.1
2016-05-03T12:59:24.237Z,24.1
2016-05-03T13:00:23.037Z,24.1
2016-05-03T13:01:21.804Z,24.1
2016-05-03T13:02:20.620Z,24.1
2016-05-03T13:03:19.387Z,24.1
2016-05-03T13:04:18.187Z,24.1
2016-05-03T13:05:17.034Z,24.1
2016-05-03T13:06:18.052Z,24.1
2016-05-03T13:07:16.961Z,24.1
2016-05-03T13:08:15.619Z,24.1
2016-05-03T13:09:14.419Z,24.1
2016-05-03T13:10:13.219Z,24
2016-05-03T13:11:12.128Z,24
2016-05-03T13:12:10.787Z,24.1
2016-05-03T13:13:09.586Z,24.1
2016-05-03T13:14:08.386Z,24
2016-05-03T13:15:07.217Z,24.1
2016-05-03T13:16:08.235Z,24.1
2016-05-03T13:17:07.019Z,24.1
2016-05-03T13:18:05.818Z,24
2016-05-03T13:19:04.602Z,24.1
2016-05-03T13:20:03.402Z,24.1
2016-05-03T13:21:02.186Z,24
2016-05-03T13:22:00.985Z,24.1
2016-05-03T13:23:00.021Z,24.1
2016-05-03T13:23:58.633Z,24
2016-05-03T13:24:57.531Z,24.1
2016-05-03T13:25:58.424Z,24.1
2016-05-03T13:26:57.083Z,24
2016-05-03T13:27:55.545Z,24